Time;durP1;ratioP1;P1;durP2;ratioP2;P2;SDS_P1;SDS_P2;PMS_P1;PMS_P2;Temp;Humidity;BMP_temperature;BMP_pressure;BME280_temperature;BME280_humidity;BME280_pressure;Samples;Min_cycle;Max_cycle;Signal;HPM_P1;HPM_P2
2022/11/27 00:01:31;;;;;;;36.88;13.93;;;;;;;-1.00;100.00;100080.84;5008611;28;20030;-77
2022/11/27 00:03:56;;;;;;;26.65;12.30;;;;;;;-1.13;100.00;100078.13;5013012;28;20030;-78
2022/11/27 00:06:24;;;;;;;21.08;10.35;;;;;;;-1.01;100.00;100095.09;5012532;28;20117;-77
2022/11/27 00:08:49;;;;;;;29.58;12.98;;;;;;;-1.22;100.00;100066.28;5011105;28;20029;-77
2022/11/27 00:11:20;;;;;;;25.52;11.70;;;;;;;-1.17;100.00;100081.94;5022397;28;20032;-77
2022/11/27 00:13:46;;;;;;;23.13;10.90;;;;;;;-1.21;100.00;100083.91;5011301;28;20022;-77
2022/11/27 00:16:13;;;;;;;24.88;11.35;;;;;;;-1.25;100.00;100063.81;5010671;28;20022;-77
2022/11/27 00:18:39;;;;;;;28.35;12.93;;;;;;;-1.33;100.00;100043.06;5005515;28;20481;-77
2022/11/27 00:21:06;;;;;;;21.00;11.27;;;;;;;-1.04;100.00;100066.06;5001738;28;20057;-77
2022/11/27 00:23:32;;;;;;;23.45;11.18;;;;;;;-0.98;100.00;100066.50;5006228;28;20038;-77
2022/11/27 00:25:58;;;;;;;24.40;11.95;;;;;;;-1.34;100.00;100012.19;5008768;28;20026;-77
2022/11/27 00:28:23;;;;;;;34.28;12.32;;;;;;;-0.97;100.00;100076.22;5012114;28;20025;-77
2022/11/27 00:30:49;;;;;;;23.88;11.07;;;;;;;-1.07;100.00;100043.22;5006088;28;20120;-77
2022/11/27 00:33:14;;;;;;;25.83;13.32;;;;;;;-1.01;100.00;100053.44;5011493;28;20054;-77
2022/11/27 00:35:39;;;;;;;23.55;12.32;;;;;;;-1.16;100.00;100026.06;5012917;28;20026;-77
2022/11/27 00:38:05;;;;;;;31.10;11.43;;;;;;;-1.13;100.00;100025.00;5011957;28;20092;-77
2022/11/27 00:40:31;;;;;;;23.33;11.18;;;;;;;-0.93;100.00;100075.03;5013363;28;20079;-77
2022/11/27 00:42:56;;;;;;;26.25;11.45;;;;;;;-0.99;100.00;100062.16;5015317;28;20030;-77
2022/11/27 00:45:22;;;;;;;24.95;11.88;;;;;;;-1.18;100.00;100027.09;5011429;28;20026;-77
2022/11/27 00:47:47;;;;;;;28.90;11.75;;;;;;;-1.14;100.00;100036.59;5010660;28;20129;-78
2022/11/27 00:50:12;;;;;;;27.73;11.32;;;;;;;-1.11;100.00;100045.19;5010993;28;20029;-77
2022/11/27 00:52:38;;;;;;;27.55;12.27;;;;;;;-1.51;100.00;99993.81;5002341;28;20030;-77
2022/11/27 00:55:03;;;;;;;31.10;13.30;;;;;;;-1.08;100.00;100043.31;5012126;28;20029;-77
2022/11/27 00:57:29;;;;;;;39.05;11.95;;;;;;;-1.56;100.00;99959.59;5012007;28;20116;-77
2022/11/27 00:59:54;;;;;;;31.13;12.57;;;;;;;-1.17;100.00;100012.88;5010495;28;20029;-77
2022/11/27 01:02:19;;;;;;;37.40;14.38;;;;;;;-1.09;100.00;100036.31;5007285;28;20022;-77
2022/11/27 01:04:45;;;;;;;41.50;15.10;;;;;;;-1.18;100.00;100016.47;5010836;28;20076;-77
2022/11/27 01:07:11;;;;;;;35.97;15.00;;;;;;;-1.19;100.00;100020.94;5010571;28;20041;-77
2022/11/27 01:09:36;;;;;;;36.20;14.60;;;;;;;-1.13;100.00;100030.31;5010558;28;20025;-76
2022/11/27 01:12:02;;;;;;;41.25;18.05;;;;;;;-1.22;100.00;100030.91;5011741;28;20095;-79
2022/11/27 01:14:27;;;;;;;37.83;15.65;;;;;;;-1.57;100.00;99994.22;5009140;28;20084;-76
2022/11/27 01:16:53;;;;;;;42.45;17.48;;;;;;;-1.59;100.00;99990.78;5009724;28;20037;-76
2022/11/27 01:19:18;;;;;;;39.38;17.42;;;;;;;-1.45;100.00;99995.22;5010800;28;20404;-75
2022/11/27 01:21:44;;;;;;;47.25;17.98;;;;;;;-1.46;100.00;100014.75;5006795;28;20030;-75
2022/11/27 01:24:12;;;;;;;41.65;16.30;;;;;;;-1.69;100.00;99971.94;5010114;28;20022;-75
2022/11/27 01:26:37;;;;;;;41.00;17.35;;;;;;;-1.44;100.00;100013.72;5007519;28;20515;-75
2022/11/27 01:29:03;;;;;;;47.75;19.13;;;;;;;-1.55;100.00;99989.63;5008967;28;20038;-76
2022/11/27 01:31:31;;;;;;;43.20;18.75;;;;;;;-1.60;100.00;99974.03;5010150;28;20026;-75
2022/11/27 01:33:59;;;;;;;47.45;17.45;;;;;;;-1.70;100.00;99987.94;5011104;28;20018;-75
2022/11/27 01:36:25;;;;;;;42.75;18.15;;;;;;;-1.52;100.00;100007.16;5007322;28;20540;-76
2022/11/27 01:38:51;;;;;;;51.85;18.67;;;;;;;-1.78;100.00;99953.97;5007362;28;20447;-75
2022/11/27 01:41:29;;;;;;;77.70;21.10;;;;;;;-1.50;100.00;99997.31;5007969;28;20038;-75
2022/11/27 01:43:57;;;;;;;96.90;23.42;;;;;;;-1.51;100.00;100003.56;5003265;28;20069;-75
2022/11/27 01:46:32;;;;;;;77.63;22.27;;;;;;;-1.59;100.00;99991.63;5011687;28;20036;-75
2022/11/27 01:49:20;;;;;;;89.13;21.73;;;;;;;-1.64;100.00;99984.91;5010668;28;20689;-75
2022/11/27 01:51:53;;;;;;;98.95;20.83;;;;;;;-1.79;100.00;99957.53;5004378;28;20374;-75
2022/11/27 01:54:21;;;;;;;71.22;20.77;;;;;;;-1.69;100.00;99973.75;5027633;28;20160;-76
2022/11/27 01:56:50;;;;;;;75.93;20.40;;;;;;;-1.81;100.00;99968.28;5006879;28;20026;-75
2022/11/27 01:59:17;;;;;;;68.18;19.90;;;;;;;-1.72;100.00;99979.25;5011570;28;20500;-75
2022/11/27 02:01:43;;;;;;;57.47;19.80;;;;;;;-1.88;100.00;99966.94;5007353;28;20033;-75
2022/11/27 02:04:08;;;;;;;57.00;18.70;;;;;;;-1.77;100.00;99966.25;5010058;28;20033;-75
2022/11/27 02:06:34;;;;;;;52.85;18.15;;;;;;;-1.80;100.00;99954.03;5006065;28;20108;-75
2022/11/27 02:09:01;;;;;;;48.80;18.50;;;;;;;-1.60;100.00;99971.38;5008372;28;21404;-78
2022/11/27 02:11:45;;;;;;;54.70;18.95;;;;;;;-1.65;100.00;99959.31;5003486;28;20029;-75
2022/11/27 02:14:50;;;;;;;59.33;17.85;;;;;;;-1.78;100.00;99961.91;5009989;28;20049;-75
2022/11/27 02:17:42;;;;;;;49.65;17.95;;;;;;;-1.90;100.00;99960.03;5007940;28;20480;-75
2022/11/27 02:20:35;;;;;;;211.35;24.10;;;;;;;-1.88;100.00;99963.44;5009432;28;20072;-75
2022/11/27 02:23:35;;;;;;;158.07;19.98;;;;;;;-1.92;100.00;99961.91;5009223;28;20026;-75
2022/11/27 02:26:30;;;;;;;90.70;18.17;;;;;;;-1.91;100.00;99953.00;5011255;28;20076;-75
2022/11/27 02:29:05;;;;;;;78.53;18.23;;;;;;;-2.01;100.00;99937.69;5010370;28;20026;-75
2022/11/27 02:31:38;;;;;;;89.63;17.70;;;;;;;-1.92;100.00;99959.25;5006782;28;20034;-75
2022/11/27 02:34:09;;;;;;;111.75;18.98;;;;;;;-2.01;100.00;99955.41;5011581;28;20365;-75
2022/11/27 02:36:38;;;;;;;61.97;17.40;;;;;;;-2.13;100.00;99942.88;5013018;28;20057;-75
2022/11/27 02:39:09;;;;;;;;;;;;;;;-2.03;100.00;99959.94;5007857;28;20109;-75
2022/11/27 02:41:46;;;;;;;60.05;16.25;;;;;;;-2.22;100.00;99946.97;5009005;28;19924;-75
2022/11/27 02:44:12;;;;;;;123.55;18.45;;;;;;;-2.19;100.00;99944.13;5005341;28;20030;-75
2022/11/27 02:46:40;;;;;;;55.97;16.00;;;;;;;-2.10;100.00;99969.19;5011678;28;20025;-78
2022/11/27 02:49:11;;;;;;;52.17;16.45;;;;;;;-2.10;100.00;99970.06;5008802;28;20096;-75
2022/11/27 02:51:43;;;;;;;48.50;14.75;;;;;;;-2.14;100.00;99957.09;5008005;28;20030;-76
2022/11/27 02:54:13;;;;;;;54.10;13.48;;;;;;;-2.15;100.00;99964.19;5012170;28;20103;-75
2022/11/27 02:56:40;;;;;;;49.92;16.23;;;;;;;-2.19;100.00;99957.38;5015519;28;20029;-75
2022/11/27 02:59:11;;;;;;;49.70;15.10;;;;;;;-2.18;100.00;99956.41;5011248;28;20427;-75
2022/11/27 03:01:52;;;;;;;47.00;14.55;;;;;;;-2.10;100.00;99951.50;5014595;28;20030;-76
2022/11/27 03:04:24;;;;;;;61.28;15.00;;;;;;;-2.12;100.00;99948.09;5024743;28;20018;-76
2022/11/27 03:06:54;;;;;;;38.67;13.18;;;;;;;-2.06;100.00;99950.38;5024508;28;20030;-76
2022/11/27 03:09:33;;;;;;;44.13;14.63;;;;;;;-1.96;100.00;99952.47;5020222;28;20030;-76
2022/11/27 03:11:58;;;;;;;34.78;14.65;;;;;;;-1.91;100.00;99942.38;5013658;28;20063;-76
2022/11/27 03:14:24;;;;;;;39.13;14.75;;;;;;;-2.10;100.00;99910.88;5007139;28;20495;-75
2022/11/27 03:17:14;;;;;;;45.10;15.07;;;;;;;-1.81;100.00;99946.16;5023709;28;20030;-75
2022/11/27 03:19:55;;;;;;;43.92;14.10;;;;;;;-1.78;100.00;99946.84;5006742;28;20518;-75
2022/11/27 03:22:20;;;;;;;34.53;12.73;;;;;;;-1.82;100.00;99950.63;5014450;28;20442;-75
2022/11/27 03:24:48;;;;;;;33.65;14.23;;;;;;;-2.09;100.00;99917.91;5011863;28;20075;-77
2022/11/27 03:27:18;;;;;;;40.70;15.88;;;;;;;-2.03;100.00;99925.47;5012450;28;20060;-76
2022/11/27 03:29:50;;;;;;;37.58;13.77;;;;;;;-2.19;100.00;99911.47;5013724;28;20076;-75
2022/11/27 03:32:17;;;;;;;33.92;13.95;;;;;;;-2.38;100.00;99877.25;5008752;28;20026;-76
2022/11/27 03:34:43;;;;;;;40.45;14.65;;;;;;;-2.31;100.00;99894.50;5009236;28;20473;-75
2022/11/27 03:37:09;;;;;;;30.92;13.43;;;;;;;-2.18;100.00;99914.00;5010441;28;20041;-76
2022/11/27 03:39:35;;;;;;;35.03;14.75;;;;;;;-2.15;100.00;99929.72;5015931;28;20021;-76
2022/11/27 03:42:28;;;;;;;41.13;13.85;;;;;;;-2.23;100.00;99937.28;5018699;28;20026;-76
2022/11/27 03:45:04;;;;;;;45.40;15.00;;;;;;;-2.38;100.00;99925.84;5008329;28;20109;-76
2022/11/27 03:48:05;;;;;;;43.92;13.73;;;;;;;-2.32;100.00;99948.47;5005748;28;20022;-77
2022/11/27 03:51:08;;;;;;;48.80;13.73;;;;;;;-2.38;100.00;99932.91;5006044;28;20026;-76
2022/11/27 03:53:43;;;;;;;44.38;13.07;;;;;;;-2.46;100.00;99928.97;5010172;28;20026;-75
2022/11/27 03:56:24;;;;;;;40.95;14.23;;;;;;;-2.48;100.00;99925.53;5008583;28;20400;-75
2022/11/27 03:58:55;;;;;;;39.58;12.43;;;;;;;-2.47;100.00;99931.69;5005952;28;20026;-75
2022/11/27 04:01:24;;;;;;;34.30;12.63;;;;;;;-2.62;100.00;99922.88;5008219;28;20100;-75
2022/11/27 04:03:49;;;;;;;;;;;;;;;-2.41;100.00;99936.63;5010319;28;20381;-75
2022/11/27 04:06:15;;;;;;;33.92;12.77;;;;;;;-2.31;100.00;99911.25;5012367;28;19989;-75
2022/11/27 04:08:40;;;;;;;31.40;13.35;;;;;;;-2.35;100.00;99887.69;5007164;28;20469;-75
2022/11/27 04:11:07;;;;;;;44.35;15.20;;;;;;;-2.44;100.00;99889.97;5015005;28;20030;-75
2022/11/27 04:13:32;;;;;;;31.65;12.82;;;;;;;-2.29;100.00;99908.53;5015575;28;20021;-75
2022/11/27 04:16:01;;;;;;;48.88;14.77;;;;;;;-2.47;100.00;99911.34;5013193;28;20030;-75
2022/11/27 04:18:27;;;;;;;;;;;;;;;-2.42;100.00;99932.25;5012459;28;20107;-75
2022/11/27 04:20:52;;;;;;;35.08;12.27;;;;;;;-2.62;100.00;99917.59;5013533;28;19960;-75
2022/11/27 04:23:17;;;;;;;33.47;12.82;;;;;;;-2.66;100.00;99932.78;5008619;28;20120;-75
2022/11/27 04:25:43;;;;;;;35.17;13.43;;;;;;;-2.89;100.00;99907.69;5013389;28;20034;-75
2022/11/27 04:28:08;;;;;;;37.17;13.63;;;;;;;-2.78;100.00;99927.38;5004838;28;20034;-75
2022/11/27 04:30:33;;;;;;;66.57;20.83;;;;;;;-2.81;100.00;99893.97;5005761;28;20037;-75
2022/11/27 04:32:58;;;;;;;92.65;24.58;;;;;;;-2.78;100.00;99869.09;5012585;28;20029;-75
2022/11/27 04:35:24;;;;;;;77.85;19.98;;;;;;;-2.57;100.00;99910.19;5012701;28;20093;-75
2022/11/27 04:37:49;;;;;;;88.55;20.70;;;;;;;-2.59;100.00;99909.44;5004568;28;20033;-75
2022/11/27 04:40:14;;;;;;;180.73;20.65;;;;;;;-2.62;100.00;99906.13;5014097;28;20033;-75
2022/11/27 04:42:40;;;;;;;98.13;19.63;;;;;;;-2.79;100.00;99876.22;5014625;28;20032;-75
2022/11/27 04:45:06;;;;;;;65.05;18.35;;;;;;;-2.74;100.00;99889.19;5013129;28;20484;-75
2022/11/27 04:47:31;;;;;;;52.33;16.08;;;;;;;-2.78;100.00;99882.34;5012782;28;20034;-75
2022/11/27 04:49:56;;;;;;;59.25;17.02;;;;;;;-2.81;100.00;99878.09;5013246;28;20029;-75
2022/11/27 04:52:22;;;;;;;63.72;16.40;;;;;;;-2.72;100.00;99895.25;5007215;28;20026;-75
2022/11/27 04:54:47;;;;;;;69.20;15.88;;;;;;;-2.87;100.00;99846.69;5010894;28;20072;-75
2022/11/27 04:57:12;;;;;;;75.70;15.85;;;;;;;-2.67;100.00;99883.44;5007205;28;20034;-75
2022/11/27 04:59:38;;;;;;;54.50;15.25;;;;;;;-2.65;100.00;99870.94;5009691;28;20079;-76
2022/11/27 05:02:03;;;;;;;60.30;16.02;;;;;;;-2.49;100.00;99892.06;5005160;28;20053;-75
2022/11/27 05:04:28;;;;;;;48.38;13.73;;;;;;;-2.74;100.00;99866.19;5013620;28;20064;-75
2022/11/27 05:06:54;;;;;;;53.97;15.73;;;;;;;-2.63;100.00;99897.31;5012677;28;20037;-75
2022/11/27 05:09:19;;;;;;;48.35;15.65;;;;;;;-2.42;100.00;99901.31;5010358;28;20045;-75
2022/11/27 05:11:45;;;;;;;37.15;14.35;;;;;;;-3.07;100.00;99810.81;5009832;28;20026;-75
2022/11/27 05:14:16;;;;;;;74.38;15.30;;;;;;;-2.48;100.00;99901.69;5009913;28;20029;-75
2022/11/27 05:16:49;;;;;;;43.08;14.82;;;;;;;-2.51;100.00;99886.00;5006892;28;20053;-75
2022/11/27 05:19:16;;;;;;;45.10;13.98;;;;;;;-2.56;100.00;99892.53;5008328;28;20029;-75
2022/11/27 05:21:42;;;;;;;74.72;19.92;;;;;;;-2.70;100.00;99858.91;5012249;28;20392;-75
2022/11/27 05:24:08;;;;;;;125.68;27.38;;;;;;;-2.54;100.00;99882.66;5010350;28;20087;-75
2022/11/27 05:26:33;;;;;;;114.35;23.17;;;;;;;-2.55;100.00;99876.50;5013328;28;20026;-75
2022/11/27 05:28:59;;;;;;;80.25;20.48;;;;;;;-2.57;100.00;99880.19;5011444;28;20026;-75
2022/11/27 05:31:25;;;;;;;77.35;19.08;;;;;;;-2.60;100.00;99875.09;5009808;28;20149;-75
2022/11/27 05:33:50;;;;;;;103.47;18.75;;;;;;;-2.71;100.00;99851.91;5013156;28;20384;-75
2022/11/27 05:36:15;;;;;;;52.00;15.68;;;;;;;-2.76;100.00;99846.88;5005788;28;20025;-75
2022/11/27 05:38:41;;;;;;;130.32;24.98;;;;;;;-2.58;100.00;99875.84;5011902;28;20030;-75
2022/11/27 05:41:06;;;;;;;98.85;23.00;;;;;;;-2.64;100.00;99858.53;5011340;28;20034;-75
2022/11/27 05:43:31;;;;;;;75.60;17.88;;;;;;;-2.72;100.00;99845.78;5011045;28;20029;-76
2022/11/27 05:45:56;;;;;;;119.97;16.83;;;;;;;-2.72;100.00;99845.78;5006970;28;20504;-74
2022/11/27 05:48:22;;;;;;;36.83;13.57;;;;;;;-2.63;100.00;99859.41;5011528;28;20626;-74
2022/11/27 05:50:47;;;;;;;80.03;14.10;;;;;;;-2.56;100.00;99873.97;5011587;28;20033;-74
2022/11/27 05:53:12;;;;;;;85.50;15.00;;;;;;;-2.73;100.00;99843.19;5013034;28;20635;-74
2022/11/27 05:55:38;;;;;;;37.63;13.35;;;;;;;-2.73;100.00;99848.50;5000620;28;20081;-74
2022/11/27 05:58:03;;;;;;;41.78;13.10;;;;;;;-2.81;100.00;99861.34;5010621;28;21356;-74
2022/11/27 06:00:28;;;;;;;50.38;11.43;;;;;;;-2.86;100.00;99856.34;5011358;28;20025;-75
2022/11/27 06:02:55;;;;;;;40.20;11.20;;;;;;;-2.65;100.00;99863.00;5006324;28;20025;-75
2022/11/27 06:05:20;;;;;;;38.20;12.00;;;;;;;-2.68;100.00;99873.75;5011793;28;20029;-75
2022/11/27 06:07:46;;;;;;;81.28;15.40;;;;;;;-2.63;100.00;99878.78;5011470;28;20025;-75
2022/11/27 06:10:11;;;;;;;50.67;15.90;;;;;;;-2.90;100.00;99834.50;5001957;28;20026;-75
2022/11/27 06:12:36;;;;;;;65.63;15.85;;;;;;;-2.75;100.00;99867.16;5010170;28;20029;-74
2022/11/27 06:15:02;;;;;;;59.05;15.80;;;;;;;-2.75;100.00;99874.22;5016922;22;20054;-65
2022/11/27 06:17:29;;;;;;;66.90;16.45;;;;;;;-2.75;100.00;99869.81;4986450;28;20113;-64
2022/11/27 06:19:54;;;;;;;87.38;18.30;;;;;;;-2.70;100.00;99864.19;4997490;28;20030;-66
2022/11/27 06:22:20;;;;;;;59.15;16.33;;;;;;;-2.74;100.00;99868.00;4989164;28;20041;-64
2022/11/27 06:24:45;;;;;;;65.10;15.93;;;;;;;-2.73;100.00;99869.69;4981793;28;20026;-65
2022/11/27 06:27:10;;;;;;;71.75;19.45;;;;;;;-2.71;100.00;99862.50;4985761;28;20058;-71
2022/11/27 06:29:36;;;;;;;54.42;17.05;;;;;;;-2.58;100.00;99873.22;4986849;28;20033;-65
2022/11/27 06:32:03;;;;;;;56.88;17.02;;;;;;;-2.66;100.00;99874.53;4990442;28;20481;-65
2022/11/27 06:34:29;;;;;;;50.17;15.05;;;;;;;-2.59;100.00;99872.38;4986840;28;20042;-64
2022/11/27 06:36:54;;;;;;;45.30;15.68;;;;;;;-2.67;100.00;99880.78;4989918;28;20023;-65
2022/11/27 06:39:20;;;;;;;45.70;13.30;;;;;;;-2.74;100.00;99884.72;4987329;28;20042;-65
2022/11/27 06:41:47;;;;;;;41.75;12.38;;;;;;;-2.77;100.00;99889.38;4985932;28;20029;-66
2022/11/27 06:44:12;;;;;;;36.33;12.82;;;;;;;-2.89;100.00;99880.34;4983588;28;20121;-65
2022/11/27 06:46:38;;;;;;;37.90;13.60;;;;;;;-2.93;100.00;99885.00;4980322;28;20154;-65
2022/11/27 06:49:03;;;;;;;43.70;13.82;;;;;;;-2.96;100.00;99873.72;4986368;28;20470;-65
2022/11/27 06:51:31;;;;;;;46.65;15.10;;;;;;;-2.90;100.00;99863.63;4988432;28;20493;-65
2022/11/27 06:53:58;;;;;;;59.75;16.00;;;;;;;-2.81;100.00;99867.50;4986269;28;20032;-64
2022/11/27 06:56:25;;;;;;;67.82;20.10;;;;;;;-2.73;100.00;99873.19;4988700;28;20038;-63
2022/11/27 06:58:59;;;;;;;35.90;13.77;;;;;;;-2.68;100.00;99857.00;4981450;28;20037;-64
2022/11/27 07:01:26;;;;;;;41.90;15.13;;;;;;;-2.64;100.00;99858.53;4987994;28;20057;-64
2022/11/27 07:03:52;;;;;;;33.35;14.13;;;;;;;-2.59;100.00;99855.59;4985726;28;20085;-64
2022/11/27 07:06:20;;;;;;;41.85;14.07;;;;;;;-2.58;100.00;99852.88;4986337;28;20031;-64
2022/11/27 07:08:46;;;;;;;38.55;14.68;;;;;;;-2.55;100.00;99859.78;4984473;28;20386;-64
2022/11/27 07:11:17;;;;;;;40.65;14.10;;;;;;;-2.51;100.00;99859.50;4985764;28;20128;-64
2022/11/27 07:13:46;;;;;;;41.03;14.90;;;;;;;-2.45;100.00;99864.41;4986807;28;20109;-64
2022/11/27 07:16:13;;;;;;;36.13;13.15;;;;;;;-2.40;100.00;99858.00;4989293;28;20080;-66
2022/11/27 07:18:45;;;;;;;47.33;14.32;;;;;;;-2.35;100.00;99854.09;4985139;28;20454;-66
2022/11/27 07:21:11;;;;;;;38.85;12.50;;;;;;;-2.30;100.00;99856.47;4988136;28;20030;-65
2022/11/27 07:23:37;;;;;;;38.47;12.65;;;;;;;-2.17;100.00;99854.75;4994716;28;20028;-64
2022/11/27 07:26:14;;;;;;;34.25;13.38;;;;;;;-2.04;100.00;99852.19;4989687;28;20057;-64
2022/11/27 07:28:43;;;;;;;37.17;13.32;;;;;;;-2.02;100.00;99852.91;4987931;28;20066;-64
2022/11/27 07:31:11;;;;;;;31.30;12.25;;;;;;;-1.92;100.00;99840.75;4988444;28;20096;-64
2022/11/27 07:33:36;;;;;;;29.98;12.70;;;;;;;-1.66;100.00;99831.13;4984377;28;20030;-66
2022/11/27 07:36:12;;;;;;;52.58;14.35;;;;;;;-1.68;100.00;99822.41;4988877;28;20382;-64
2022/11/27 07:38:37;;;;;;;66.38;16.90;;;;;;;-1.64;100.00;99812.47;4991229;28;20080;-64
2022/11/27 07:41:04;;;;;;;41.60;15.10;;;;;;;-1.51;100.00;99801.88;4989796;28;20780;-64
2022/11/27 07:43:31;;;;;;;127.32;19.05;;;;;;;-1.37;100.00;99801.81;4995873;28;20025;-65
2022/11/27 07:45:57;;;;;;;83.25;18.60;;;;;;;-1.20;100.00;99798.88;4991943;28;20118;-64
2022/11/27 07:48:23;;;;;;;45.80;16.23;;;;;;;-0.89;100.00;99807.41;5005766;28;20049;-64
2022/11/27 07:50:49;;;;;;;48.47;14.82;;;;;;;-0.60;100.00;99797.41;4988044;28;20033;-64
2022/11/27 07:53:15;;;;;;;53.33;14.65;;;;;;;-0.25;100.00;99794.03;4992876;28;20390;-65
2022/11/27 07:55:40;;;;;;;46.53;15.57;;;;;;;0.09;100.00;99792.44;4985412;28;20038;-65
2022/11/27 07:58:07;;;;;;;50.83;17.65;;;;;;;0.28;100.00;99797.25;4990197;28;20429;-65
2022/11/27 08:00:34;;;;;;;51.20;17.00;;;;;;;0.48;100.00;99793.13;4990009;28;20076;-65
2022/11/27 08:03:00;;;;;;;28.23;11.30;;;;;;;0.57;100.00;99780.91;4988805;28;20113;-66
2022/11/27 08:05:26;;;;;;;22.10;9.20;;;;;;;0.51;100.00;99774.25;4994235;28;20135;-65
2022/11/27 08:07:51;;;;;;;26.30;9.20;;;;;;;0.11;100.00;99752.44;4997479;28;20113;-64
2022/11/27 08:10:17;;;;;;;24.33;8.20;;;;;;;-0.19;100.00;99739.56;4999804;28;20041;-64
2022/11/27 08:12:42;;;;;;;16.85;8.40;;;;;;;-0.14;100.00;99743.56;4989125;28;20050;-64
2022/11/27 08:15:09;;;;;;;28.83;10.00;;;;;;;-0.15;100.00;99757.00;4984691;28;20030;-64
2022/11/27 08:17:34;;;;;;;16.33;8.63;;;;;;;-0.20;100.00;99748.50;4990625;28;20030;-62
2022/11/27 08:20:00;;;;;;;20.83;8.45;;;;;;;-0.14;100.00;99748.03;4988286;28;20424;-65
2022/11/27 08:22:26;;;;;;;14.10;7.60;;;;;;;-0.04;100.00;99741.09;4989507;28;20499;-63
2022/11/27 08:24:52;;;;;;;13.98;7.85;;;;;;;-0.25;100.00;99741.69;4984756;28;20117;-63
2022/11/27 08:27:18;;;;;;;15.75;7.40;;;;;;;0.09;100.00;99741.03;4987136;28;20161;-63
2022/11/27 08:29:43;;;;;;;18.55;8.48;;;;;;;1.85;100.00;99723.81;4991313;28;20026;-63
2022/11/27 08:32:09;;;;;;;9.77;6.07;;;;;;;4.36;100.00;99715.34;4990206;28;20026;-64
2022/11/27 08:34:35;;;;;;;10.50;6.45;;;;;;;6.37;100.00;99692.50;4991132;28;20029;-64
2022/11/27 08:37:00;;;;;;;13.98;6.93;;;;;;;8.17;100.00;99679.13;4995831;28;20027;-63
2022/11/27 08:39:26;;;;;;;14.65;7.55;;;;;;;9.02;100.00;99665.31;4993771;28;20050;-63
2022/11/27 08:41:52;;;;;;;14.73;8.60;;;;;;;9.46;100.00;99662.13;4990521;28;20072;-63
2022/11/27 08:44:18;;;;;;;15.15;7.88;;;;;;;9.57;100.00;99667.16;4993315;28;20365;-63
2022/11/27 08:46:44;;;;;;;16.40;8.73;;;;;;;11.20;100.00;99667.78;4991193;28;20034;-63
2022/11/27 08:49:09;;;;;;;12.57;7.70;;;;;;;11.51;100.00;99664.88;4996320;28;20026;-62
2022/11/27 08:51:35;;;;;;;11.98;7.72;;;;;;;12.36;93.83;99657.94;4994328;28;20041;-62
2022/11/27 08:54:01;;;;;;;14.57;9.38;;;;;;;12.60;67.03;99651.31;4994034;28;20022;-63
2022/11/27 08:56:26;;;;;;;17.33;11.02;;;;;;;13.01;61.20;99649.72;4991180;28;20470;-62
2022/11/27 08:58:52;;;;;;;13.98;9.75;;;;;;;14.82;57.86;99653.72;4986180;28;20026;-63
2022/11/27 09:01:27;;;;;;;13.80;8.40;;;;;;;14.78;54.95;99657.09;4990001;28;20535;-62
2022/11/27 09:03:52;;;;;;;11.50;7.53;;;;;;;16.32;52.54;99648.25;4996320;28;20022;-62
2022/11/27 09:06:24;;;;;;;11.45;7.85;;;;;;;16.49;48.45;99645.78;4986728;28;20031;-62
2022/11/27 09:08:50;;;;;;;10.18;6.25;;;;;;;17.19;47.63;99645.66;4992651;28;20093;-62
2022/11/27 09:11:18;;;;;;;7.03;5.65;;;;;;;18.27;46.22;99655.09;4989027;28;20022;-62
2022/11/27 09:13:43;;;;;;;6.97;4.97;;;;;;;18.80;44.40;99664.44;5001507;28;20385;-63
2022/11/27 09:16:12;;;;;;;6.50;4.80;;;;;;;18.15;44.61;99667.91;4988102;28;20029;-63
2022/11/27 09:18:38;;;;;;;7.93;4.97;;;;;;;17.93;45.13;99654.69;4988684;28;20129;-63
2022/11/27 09:21:07;;;;;;;6.88;3.92;;;;;;;18.78;46.51;99655.59;4985356;28;20033;-62
2022/11/27 09:23:33;;;;;;;5.40;3.67;;;;;;;19.52;41.52;99655.13;4984532;28;20088;-63
2022/11/27 09:26:00;;;;;;;4.90;3.35;;;;;;;19.46;42.00;99648.69;4987738;28;20018;-61
2022/11/27 09:28:26;;;;;;;4.07;3.55;;;;;;;19.51;42.49;99647.97;5004683;28;20030;-62
2022/11/27 09:30:56;;;;;;;5.00;3.53;;;;;;;19.23;44.68;99638.56;5008675;28;20378;-62
2022/11/27 09:33:26;;;;;;;6.43;4.20;;;;;;;19.41;42.95;99626.63;4989057;28;20034;-63
2022/11/27 09:35:52;;;;;;;6.70;4.43;;;;;;;20.42;40.58;99617.94;5001964;28;20022;-63
2022/11/27 09:38:17;;;;;;;7.03;4.55;;;;;;;19.21;42.31;99621.53;4986419;28;20328;-63
2022/11/27 09:40:48;;;;;;;8.68;5.05;;;;;;;18.94;42.85;99629.38;4980737;28;20562;-63
2022/11/27 09:43:15;;;;;;;10.10;4.88;;;;;;;17.57;46.34;99632.81;4993230;28;20651;-62
2022/11/27 09:45:46;;;;;;;7.13;5.10;;;;;;;19.66;43.27;99638.19;4989247;28;20386;-63
2022/11/27 09:48:21;;;;;;;8.27;5.05;;;;;;;20.26;43.69;99623.16;5005009;28;20053;-64
2022/11/27 09:50:51;;;;;;;7.35;5.43;;;;;;;21.04;40.43;99598.63;4984071;28;20038;-64
2022/11/27 09:53:39;;;;;;;8.98;5.07;;;;;;;18.95;43.87;99601.75;4989070;28;20410;-63
2022/11/27 09:56:10;;;;;;;7.20;5.05;;;;;;;18.11;45.50;99612.75;4993512;28;20037;-64
2022/11/27 09:58:46;;;;;;;8.35;5.55;;;;;;;17.18;47.97;99613.88;4988932;28;20042;-65
2022/11/27 10:01:15;;;;;;;7.47;5.30;;;;;;;16.51;50.04;99610.06;5007498;28;20136;-65
2022/11/27 10:03:42;;;;;;;7.18;4.72;;;;;;;17.21;50.33;99597.03;4990827;28;20104;-65
2022/11/27 10:06:34;;;;;;;6.20;3.78;;;;;;;19.01;45.88;99592.53;4999854;28;20049;-64
2022/11/27 10:09:35;;;;;;;6.30;3.83;;;;;;;17.92;46.66;99581.88;5006361;28;20031;-65
2022/11/27 10:12:07;;;;;;;5.90;4.03;;;;;;;18.61;46.90;99575.94;4987588;28;20093;-65
2022/11/27 10:14:39;;;;;;;6.15;3.95;;;;;;;17.91;47.00;99573.88;4984019;28;20018;-65
2022/11/27 10:17:04;;;;;;;6.88;4.25;;;;;;;15.46;51.83;99573.09;4989419;28;20032;-64
2022/11/27 10:19:52;;;;;;;6.13;4.50;;;;;;;13.06;61.61;99572.03;5005457;28;20116;-65
2022/11/27 10:22:30;;;;;;;7.88;4.57;;;;;;;11.39;80.27;99574.25;4985624;28;20483;-64
2022/11/27 10:25:09;;;;;;;12.70;6.57;;;;;;;14.03;69.89;99568.22;4985450;28;20026;-64
2022/11/27 10:27:39;;;;;;;7.95;4.78;;;;;;;16.61;56.91;99553.00;4987571;28;20031;-64
2022/11/27 10:30:19;;;;;;;8.38;4.20;;;;;;;17.69;53.13;99551.63;4983947;28;20109;-64
2022/11/27 10:32:46;;;;;;;;;;;;;;;18.46;51.52;99562.69;4985412;28;20022;-64
2022/11/27 10:35:16;;;;;;;5.60;3.80;;;;;;;21.58;46.00;99543.75;4990494;28;19922;-64
2022/11/27 10:37:54;;;;;;;5.75;3.90;;;;;;;23.00;42.51;99555.53;4975118;28;20494;-65
2022/11/27 10:40:25;;;;;;;5.30;3.40;;;;;;;24.70;39.58;99550.25;5004810;28;20066;-65
2022/11/27 10:43:06;;;;;;;5.47;3.38;;;;;;;25.27;37.10;99543.50;4990328;28;20080;-65
2022/11/27 10:46:09;;;;;;;4.97;3.35;;;;;;;24.55;37.11;99540.03;4999373;28;20018;-65
2022/11/27 10:48:35;;;;;;;3.78;2.50;;;;;;;24.77;35.81;99523.13;4986559;28;20532;-66
2022/11/27 10:51:00;;;;;;;5.20;3.08;;;;;;;23.65;38.21;99528.50;4989182;28;20038;-66
2022/11/27 10:53:35;;;;;;;4.90;2.45;;;;;;;23.89;36.05;99529.69;4988735;28;20026;-66
2022/11/27 10:56:14;;;;;;;2.88;2.05;;;;;;;23.36;36.91;99518.75;4989759;28;20026;-66
2022/11/27 10:58:42;;;;;;;4.55;2.90;;;;;;;20.96;40.53;99511.03;5003761;28;20382;-66
2022/11/27 11:01:16;;;;;;;4.07;2.60;;;;;;;20.99;40.76;99510.53;4991305;28;20030;-68
2022/11/27 11:03:42;;;;;;;4.20;2.47;;;;;;;21.75;39.38;99479.50;4985603;28;20089;-66
2022/11/27 11:06:15;;;;;;;4.35;2.67;;;;;;;23.29;37.34;99501.63;4984415;28;20054;-67
2022/11/27 11:08:41;;;;;;;4.43;2.72;;;;;;;23.66;37.31;99497.88;4988719;28;20049;-66
2022/11/27 11:11:07;;;;;;;4.18;2.75;;;;;;;24.21;36.04;99488.00;4988238;28;20498;-66
2022/11/27 11:13:39;;;;;;;4.40;2.15;;;;;;;22.80;37.94;99481.75;4988187;28;20415;-67
2022/11/27 11:16:15;;;;;;;4.82;2.50;;;;;;;22.96;37.34;99470.53;4981192;28;20034;-66
2022/11/27 11:18:51;;;;;;;6.82;3.47;;;;;;;22.71;37.37;99467.59;4990731;28;20064;-66
2022/11/27 11:21:30;;;;;;;4.70;2.30;;;;;;;22.60;38.40;99457.63;5001888;28;20022;-66
2022/11/27 11:24:01;;;;;;;3.67;2.60;;;;;;;22.12;38.87;99451.19;4986557;28;20568;-66